sensor_id;sensor_type;location;lat;lon;timestamp;temperature;humidity
41678;DHT22;27364;49.026;8.712;2023-07-16T00:00:09;19.00;99.90
41678;DHT22;27364;49.026;8.712;2023-07-16T00:02:37;19.00;99.90
41678;DHT22;27364;49.026;8.712;2023-07-16T00:05:03;19.00;99.90
41678;DHT22;27364;49.026;8.712;2023-07-16T00:07:28;19.00;99.90
41678;DHT22;27364;49.026;8.712;2023-07-16T00:09:54;19.00;99.90
41678;DHT22;27364;49.026;8.712;2023-07-16T00:12:19;19.10;99.90
41678;DHT22;27364;49.026;8.712;2023-07-16T00:14:45;19.10;99.90
41678;DHT22;27364;49.026;8.712;2023-07-16T00:17:10;19.10;99.90
41678;DHT22;27364;49.026;8.712;2023-07-16T00:19:36;19.10;99.90
41678;DHT22;27364;49.026;8.712;2023-07-16T00:22:02;19.10;99.90
41678;DHT22;27364;49.026;8.712;2023-07-16T00:24:28;19.10;99.90
41678;DHT22;27364;49.026;8.712;2023-07-16T00:26:53;19.10;99.90
41678;DHT22;27364;49.026;8.712;2023-07-16T00:29:20;19.20;99.90
41678;DHT22;27364;49.026;8.712;2023-07-16T00:31:45;19.20;99.90
41678;DHT22;27364;49.026;8.712;2023-07-16T00:34:11;19.10;99.90
41678;DHT22;27364;49.026;8.712;2023-07-16T00:36:38;19.20;99.90
41678;DHT22;27364;49.026;8.712;2023-07-16T00:39:03;19.20;99.90
41678;DHT22;27364;49.026;8.712;2023-07-16T00:41:29;19.10;99.90
41678;DHT22;27364;49.026;8.712;2023-07-16T00:43:54;19.10;99.90
41678;DHT22;27364;49.026;8.712;2023-07-16T00:46:20;19.00;99.90
41678;DHT22;27364;49.026;8.712;2023-07-16T00:48:46;19.00;99.90
41678;DHT22;27364;49.026;8.712;2023-07-16T00:51:12;18.90;99.90
41678;DHT22;27364;49.026;8.712;2023-07-16T00:53:41;18.80;99.90
41678;DHT22;27364;49.026;8.712;2023-07-16T00:56:07;18.70;99.90
41678;DHT22;27364;49.026;8.712;2023-07-16T00:58:33;18.70;99.90
41678;DHT22;27364;49.026;8.712;2023-07-16T01:00:59;18.60;99.90
41678;DHT22;27364;49.026;8.712;2023-07-16T01:03:25;18.60;99.90
41678;DHT22;27364;49.026;8.712;2023-07-16T01:06:00;18.60;99.90
41678;DHT22;27364;49.026;8.712;2023-07-16T01:11:05;18.40;99.90
41678;DHT22;27364;49.026;8.712;2023-07-16T01:13:31;18.30;99.90
41678;DHT22;27364;49.026;8.712;2023-07-16T01:15:57;18.30;99.90
41678;DHT22;27364;49.026;8.712;2023-07-16T01:18:23;18.30;99.90
41678;DHT22;27364;49.026;8.712;2023-07-16T01:20:49;18.30;99.90
41678;DHT22;27364;49.026;8.712;2023-07-16T01:31:19;18.30;99.90
41678;DHT22;27364;49.026;8.712;2023-07-16T01:33:48;18.20;99.90
41678;DHT22;27364;49.026;8.712;2023-07-16T01:36:14;18.20;99.90
41678;DHT22;27364;49.026;8.712;2023-07-16T01:38:40;18.20;99.90
41678;DHT22;27364;49.026;8.712;2023-07-16T01:41:06;18.20;99.90
41678;DHT22;27364;49.026;8.712;2023-07-16T01:43:31;18.20;99.90
41678;DHT22;27364;49.026;8.712;2023-07-16T01:45:57;18.20;99.90
41678;DHT22;27364;49.026;8.712;2023-07-16T01:48:32;18.10;99.90
41678;DHT22;27364;49.026;8.712;2023-07-16T01:50:57;18.10;99.90
41678;DHT22;27364;49.026;8.712;2023-07-16T01:53:23;18.10;99.90
41678;DHT22;27364;49.026;8.712;2023-07-16T01:55:49;18.20;99.90
41678;DHT22;27364;49.026;8.712;2023-07-16T01:58:14;18.10;99.90
41678;DHT22;27364;49.026;8.712;2023-07-16T02:00:40;18.10;99.90
41678;DHT22;27364;49.026;8.712;2023-07-16T02:03:05;18.10;99.90
41678;DHT22;27364;49.026;8.712;2023-07-16T02:05:31;18.10;99.90
41678;DHT22;27364;49.026;8.712;2023-07-16T02:07:56;18.00;99.90
41678;DHT22;27364;49.026;8.712;2023-07-16T02:10:22;18.00;99.90
41678;DHT22;27364;49.026;8.712;2023-07-16T02:12:48;18.10;99.90
41678;DHT22;27364;49.026;8.712;2023-07-16T02:15:13;18.10;99.90
41678;DHT22;27364;49.026;8.712;2023-07-16T02:17:39;18.10;99.90
41678;DHT22;27364;49.026;8.712;2023-07-16T02:20:05;18.00;99.90
41678;DHT22;27364;49.026;8.712;2023-07-16T02:22:31;18.10;99.90
41678;DHT22;27364;49.026;8.712;2023-07-16T02:24:57;18.00;99.90
41678;DHT22;27364;49.026;8.712;2023-07-16T02:27:22;18.10;99.90
41678;DHT22;27364;49.026;8.712;2023-07-16T02:29:48;18.10;99.90
41678;DHT22;27364;49.026;8.712;2023-07-16T02:32:13;18.00;99.90
41678;DHT22;27364;49.026;8.712;2023-07-16T02:34:40;18.00;99.90
41678;DHT22;27364;49.026;8.712;2023-07-16T02:37:06;18.00;99.90
41678;DHT22;27364;49.026;8.712;2023-07-16T02:39:32;18.00;99.90
41678;DHT22;27364;49.026;8.712;2023-07-16T02:41:57;17.90;99.90
41678;DHT22;27364;49.026;8.712;2023-07-16T02:44:23;17.90;99.90
41678;DHT22;27364;49.026;8.712;2023-07-16T02:46:48;17.90;99.90
41678;DHT22;27364;49.026;8.712;2023-07-16T02:49:13;18.00;99.90
41678;DHT22;27364;49.026;8.712;2023-07-16T02:51:39;17.90;99.90
41678;DHT22;27364;49.026;8.712;2023-07-16T02:54:05;17.90;99.90
41678;DHT22;27364;49.026;8.712;2023-07-16T02:56:30;17.80;99.90
41678;DHT22;27364;49.026;8.712;2023-07-16T02:58:56;17.80;99.90
41678;DHT22;27364;49.026;8.712;2023-07-16T03:01:21;17.80;99.90
41678;DHT22;27364;49.026;8.712;2023-07-16T03:03:47;17.90;99.90
41678;DHT22;27364;49.026;8.712;2023-07-16T03:06:12;17.80;99.90
41678;DHT22;27364;49.026;8.712;2023-07-16T03:08:37;17.90;99.90
41678;DHT22;27364;49.026;8.712;2023-07-16T03:11:03;17.90;99.90
41678;DHT22;27364;49.026;8.712;2023-07-16T03:13:28;17.80;99.90
41678;DHT22;27364;49.026;8.712;2023-07-16T03:15:54;17.80;99.90
41678;DHT22;27364;49.026;8.712;2023-07-16T03:18:20;17.80;99.90
41678;DHT22;27364;49.026;8.712;2023-07-16T03:20:45;17.80;99.90
41678;DHT22;27364;49.026;8.712;2023-07-16T03:23:11;17.70;99.90
41678;DHT22;27364;49.026;8.712;2023-07-16T03:25:36;17.80;99.90
41678;DHT22;27364;49.026;8.712;2023-07-16T03:28:02;17.70;99.90
41678;DHT22;27364;49.026;8.712;2023-07-16T03:30:30;17.70;99.90
41678;DHT22;27364;49.026;8.712;2023-07-16T03:32:56;17.70;99.90
41678;DHT22;27364;49.026;8.712;2023-07-16T03:35:21;17.70;99.90
41678;DHT22;27364;49.026;8.712;2023-07-16T03:37:47;17.70;99.90
41678;DHT22;27364;49.026;8.712;2023-07-16T03:40:18;17.70;99.90
41678;DHT22;27364;49.026;8.712;2023-07-16T03:42:44;17.70;99.90
41678;DHT22;27364;49.026;8.712;2023-07-16T03:45:10;17.60;99.90
41678;DHT22;27364;49.026;8.712;2023-07-16T03:47:36;17.60;99.90
41678;DHT22;27364;49.026;8.712;2023-07-16T03:50:02;17.60;99.90
41678;DHT22;27364;49.026;8.712;2023-07-16T03:52:28;17.60;99.90
41678;DHT22;27364;49.026;8.712;2023-07-16T03:54:54;17.60;99.90
41678;DHT22;27364;49.026;8.712;2023-07-16T03:57:21;17.60;99.90
41678;DHT22;27364;49.026;8.712;2023-07-16T03:59:46;17.70;99.90
41678;DHT22;27364;49.026;8.712;2023-07-16T04:02:12;17.60;99.90
41678;DHT22;27364;49.026;8.712;2023-07-16T04:04:37;17.60;99.90
41678;DHT22;27364;49.026;8.712;2023-07-16T04:07:04;17.60;99.90
41678;DHT22;27364;49.026;8.712;2023-07-16T04:09:31;17.50;99.90
41678;DHT22;27364;49.026;8.712;2023-07-16T04:11:56;17.50;99.90
41678;DHT22;27364;49.026;8.712;2023-07-16T04:14:22;17.60;99.90
41678;DHT22;27364;49.026;8.712;2023-07-16T04:16:48;17.60;99.90
41678;DHT22;27364;49.026;8.712;2023-07-16T04:19:14;17.50;99.90
41678;DHT22;27364;49.026;8.712;2023-07-16T04:21:39;17.60;99.90
41678;DHT22;27364;49.026;8.712;2023-07-16T04:24:05;17.60;99.90
41678;DHT22;27364;49.026;8.712;2023-07-16T04:26:31;17.60;99.90
41678;DHT22;27364;49.026;8.712;2023-07-16T04:28:58;17.60;99.90
41678;DHT22;27364;49.026;8.712;2023-07-16T04:31:24;17.60;99.90
41678;DHT22;27364;49.026;8.712;2023-07-16T04:33:50;17.60;99.90
41678;DHT22;27364;49.026;8.712;2023-07-16T04:36:15;17.70;99.90
41678;DHT22;27364;49.026;8.712;2023-07-16T04:38:41;17.60;99.90
41678;DHT22;27364;49.026;8.712;2023-07-16T04:41:07;17.60;99.90
41678;DHT22;27364;49.026;8.712;2023-07-16T04:43:33;17.70;99.90
41678;DHT22;27364;49.026;8.712;2023-07-16T04:45:59;17.70;99.90
41678;DHT22;27364;49.026;8.712;2023-07-16T04:48:25;17.60;99.90
41678;DHT22;27364;49.026;8.712;2023-07-16T04:50:51;17.60;99.90
41678;DHT22;27364;49.026;8.712;2023-07-16T04:53:18;17.60;99.90
41678;DHT22;27364;49.026;8.712;2023-07-16T04:55:44;17.70;99.90
41678;DHT22;27364;49.026;8.712;2023-07-16T04:58:11;17.60;99.90
41678;DHT22;27364;49.026;8.712;2023-07-16T05:00:37;17.70;99.90
41678;DHT22;27364;49.026;8.712;2023-07-16T05:03:02;17.60;99.90
41678;DHT22;27364;49.026;8.712;2023-07-16T05:05:28;17.60;99.90
41678;DHT22;27364;49.026;8.712;2023-07-16T05:07:54;17.60;99.90
41678;DHT22;27364;49.026;8.712;2023-07-16T05:10:19;17.70;99.90
41678;DHT22;27364;49.026;8.712;2023-07-16T05:12:45;17.70;99.90
41678;DHT22;27364;49.026;8.712;2023-07-16T05:15:10;17.70;99.90
41678;DHT22;27364;49.026;8.712;2023-07-16T05:17:36;17.70;99.90
41678;DHT22;27364;49.026;8.712;2023-07-16T05:20:02;17.70;99.90
41678;DHT22;27364;49.026;8.712;2023-07-16T05:22:29;17.70;99.90
41678;DHT22;27364;49.026;8.712;2023-07-16T05:24:55;17.70;99.90
41678;DHT22;27364;49.026;8.712;2023-07-16T05:27:20;17.70;99.90
41678;DHT22;27364;49.026;8.712;2023-07-16T05:29:46;17.70;99.90
41678;DHT22;27364;49.026;8.712;2023-07-16T05:32:11;17.70;99.90
41678;DHT22;27364;49.026;8.712;2023-07-16T05:34:37;17.80;99.90
41678;DHT22;27364;49.026;8.712;2023-07-16T05:37:02;17.80;99.90
41678;DHT22;27364;49.026;8.712;2023-07-16T05:39:28;17.90;99.90
41678;DHT22;27364;49.026;8.712;2023-07-16T05:41:53;18.00;99.90
41678;DHT22;27364;49.026;8.712;2023-07-16T05:44:19;18.10;99.90
41678;DHT22;27364;49.026;8.712;2023-07-16T05:46:45;18.10;99.90
41678;DHT22;27364;49.026;8.712;2023-07-16T05:49:11;18.10;99.90
41678;DHT22;27364;49.026;8.712;2023-07-16T05:51:37;18.20;99.90
41678;DHT22;27364;49.026;8.712;2023-07-16T05:54:03;18.20;99.90
41678;DHT22;27364;49.026;8.712;2023-07-16T05:56:28;18.20;99.90
41678;DHT22;27364;49.026;8.712;2023-07-16T05:58:54;18.10;99.90
41678;DHT22;27364;49.026;8.712;2023-07-16T06:01:20;18.10;99.90
41678;DHT22;27364;49.026;8.712;2023-07-16T06:03:45;18.10;99.90
41678;DHT22;27364;49.026;8.712;2023-07-16T06:06:11;18.10;99.90
41678;DHT22;27364;49.026;8.712;2023-07-16T06:08:36;18.20;99.90
41678;DHT22;27364;49.026;8.712;2023-07-16T06:11:02;18.20;99.90
41678;DHT22;27364;49.026;8.712;2023-07-16T06:13:30;18.10;99.90
41678;DHT22;27364;49.026;8.712;2023-07-16T06:15:56;18.20;99.90
41678;DHT22;27364;49.026;8.712;2023-07-16T06:18:22;18.10;99.90
41678;DHT22;27364;49.026;8.712;2023-07-16T06:20:48;18.10;99.90
41678;DHT22;27364;49.026;8.712;2023-07-16T06:23:14;18.10;99.90
41678;DHT22;27364;49.026;8.712;2023-07-16T06:25:41;18.20;99.90
41678;DHT22;27364;49.026;8.712;2023-07-16T06:28:10;18.30;99.90
41678;DHT22;27364;49.026;8.712;2023-07-16T06:30:35;18.30;99.90
41678;DHT22;27364;49.026;8.712;2023-07-16T06:33:01;18.40;99.90
41678;DHT22;27364;49.026;8.712;2023-07-16T06:35:26;18.50;99.90
41678;DHT22;27364;49.026;8.712;2023-07-16T06:37:52;18.60;99.90
41678;DHT22;27364;49.026;8.712;2023-07-16T06:40:17;18.60;99.90
41678;DHT22;27364;49.026;8.712;2023-07-16T06:42:44;18.70;99.90
41678;DHT22;27364;49.026;8.712;2023-07-16T06:45:09;18.70;99.90
41678;DHT22;27364;49.026;8.712;2023-07-16T06:47:35;18.80;99.90
41678;DHT22;27364;49.026;8.712;2023-07-16T06:50:04;18.90;99.90
41678;DHT22;27364;49.026;8.712;2023-07-16T06:52:30;18.90;99.90
41678;DHT22;27364;49.026;8.712;2023-07-16T06:54:56;18.90;99.90
41678;DHT22;27364;49.026;8.712;2023-07-16T06:57:23;19.10;99.90
41678;DHT22;27364;49.026;8.712;2023-07-16T06:59:49;19.10;99.90
41678;DHT22;27364;49.026;8.712;2023-07-16T07:02:18;19.10;99.90
41678;DHT22;27364;49.026;8.712;2023-07-16T07:04:44;19.10;99.90
41678;DHT22;27364;49.026;8.712;2023-07-16T07:07:10;19.10;99.90
41678;DHT22;27364;49.026;8.712;2023-07-16T07:09:38;19.20;99.90
41678;DHT22;27364;49.026;8.712;2023-07-16T07:12:04;19.20;99.90
41678;DHT22;27364;49.026;8.712;2023-07-16T07:14:30;19.20;99.90
41678;DHT22;27364;49.026;8.712;2023-07-16T07:16:58;19.30;99.90
41678;DHT22;27364;49.026;8.712;2023-07-16T07:19:23;19.30;99.90
41678;DHT22;27364;49.026;8.712;2023-07-16T07:21:55;19.20;99.90
41678;DHT22;27364;49.026;8.712;2023-07-16T07:24:20;19.30;99.90
41678;DHT22;27364;49.026;8.712;2023-07-16T07:26:46;19.30;99.90
41678;DHT22;27364;49.026;8.712;2023-07-16T07:29:11;19.30;99.90
41678;DHT22;27364;49.026;8.712;2023-07-16T07:31:37;19.50;99.90
41678;DHT22;27364;49.026;8.712;2023-07-16T07:34:08;19.40;99.90
41678;DHT22;27364;49.026;8.712;2023-07-16T07:36:34;19.40;99.90
41678;DHT22;27364;49.026;8.712;2023-07-16T07:39:00;19.50;99.90
41678;DHT22;27364;49.026;8.712;2023-07-16T07:41:25;19.60;99.90
41678;DHT22;27364;49.026;8.712;2023-07-16T07:43:52;19.70;99.90
41678;DHT22;27364;49.026;8.712;2023-07-16T07:46:18;19.70;99.90
41678;DHT22;27364;49.026;8.712;2023-07-16T07:48:44;19.80;99.90
41678;DHT22;27364;49.026;8.712;2023-07-16T07:51:09;19.80;99.90
41678;DHT22;27364;49.026;8.712;2023-07-16T07:53:35;19.90;99.90
41678;DHT22;27364;49.026;8.712;2023-07-16T07:56:00;19.90;99.90
41678;DHT22;27364;49.026;8.712;2023-07-16T07:58:26;19.90;99.90
41678;DHT22;27364;49.026;8.712;2023-07-16T08:00:51;19.80;99.90
41678;DHT22;27364;49.026;8.712;2023-07-16T08:03:17;19.80;99.90
41678;DHT22;27364;49.026;8.712;2023-07-16T08:05:44;19.80;99.90
41678;DHT22;27364;49.026;8.712;2023-07-16T08:08:12;19.90;99.90
41678;DHT22;27364;49.026;8.712;2023-07-16T08:10:38;19.90;99.90
41678;DHT22;27364;49.026;8.712;2023-07-16T08:13:03;19.90;99.90
41678;DHT22;27364;49.026;8.712;2023-07-16T08:15:29;19.80;99.90
41678;DHT22;27364;49.026;8.712;2023-07-16T08:17:58;19.90;99.90
41678;DHT22;27364;49.026;8.712;2023-07-16T08:20:25;19.80;99.90
41678;DHT22;27364;49.026;8.712;2023-07-16T08:22:51;19.80;99.90
41678;DHT22;27364;49.026;8.712;2023-07-16T08:25:16;19.80;99.90
41678;DHT22;27364;49.026;8.712;2023-07-16T08:27:42;19.80;99.90
41678;DHT22;27364;49.026;8.712;2023-07-16T08:30:08;19.80;99.90
41678;DHT22;27364;49.026;8.712;2023-07-16T08:32:35;19.80;99.90
41678;DHT22;27364;49.026;8.712;2023-07-16T08:35:00;19.80;99.90
41678;DHT22;27364;49.026;8.712;2023-07-16T08:37:26;19.80;99.90
41678;DHT22;27364;49.026;8.712;2023-07-16T08:39:54;19.80;99.90
41678;DHT22;27364;49.026;8.712;2023-07-16T08:42:19;19.70;99.90
41678;DHT22;27364;49.026;8.712;2023-07-16T08:44:48;19.80;99.90
41678;DHT22;27364;49.026;8.712;2023-07-16T08:47:15;19.80;99.90
41678;DHT22;27364;49.026;8.712;2023-07-16T08:49:41;19.80;99.90
41678;DHT22;27364;49.026;8.712;2023-07-16T08:52:07;19.80;99.90
41678;DHT22;27364;49.026;8.712;2023-07-16T08:54:34;19.90;99.90
41678;DHT22;27364;49.026;8.712;2023-07-16T08:57:00;20.10;99.90
41678;DHT22;27364;49.026;8.712;2023-07-16T08:59:27;20.10;99.90
41678;DHT22;27364;49.026;8.712;2023-07-16T09:01:53;20.10;99.90
41678;DHT22;27364;49.026;8.712;2023-07-16T09:04:19;20.10;99.90
41678;DHT22;27364;49.026;8.712;2023-07-16T09:06:44;20.20;99.90
41678;DHT22;27364;49.026;8.712;2023-07-16T09:09:23;20.20;99.90
41678;DHT22;27364;49.026;8.712;2023-07-16T09:11:49;20.20;99.90
41678;DHT22;27364;49.026;8.712;2023-07-16T09:14:20;20.20;99.90
41678;DHT22;27364;49.026;8.712;2023-07-16T09:16:50;20.20;99.90
41678;DHT22;27364;49.026;8.712;2023-07-16T09:19:15;20.30;99.90
41678;DHT22;27364;49.026;8.712;2023-07-16T09:21:49;20.40;99.90
41678;DHT22;27364;49.026;8.712;2023-07-16T09:24:16;20.40;99.90
41678;DHT22;27364;49.026;8.712;2023-07-16T09:26:54;20.40;99.90
41678;DHT22;27364;49.026;8.712;2023-07-16T09:29:25;20.40;99.90
41678;DHT22;27364;49.026;8.712;2023-07-16T09:34:23;20.30;99.90
41678;DHT22;27364;49.026;8.712;2023-07-16T09:36:49;20.40;99.90
41678;DHT22;27364;49.026;8.712;2023-07-16T09:39:18;20.40;99.90
41678;DHT22;27364;49.026;8.712;2023-07-16T09:41:50;20.50;99.90
41678;DHT22;27364;49.026;8.712;2023-07-16T09:44:16;20.70;99.90
41678;DHT22;27364;49.026;8.712;2023-07-16T09:46:43;20.80;99.90
41678;DHT22;27364;49.026;8.712;2023-07-16T09:49:09;20.70;99.90
41678;DHT22;27364;49.026;8.712;2023-07-16T09:51:36;20.70;99.90
41678;DHT22;27364;49.026;8.712;2023-07-16T09:54:02;20.70;99.90
41678;DHT22;27364;49.026;8.712;2023-07-16T09:56:35;20.60;99.90
41678;DHT22;27364;49.026;8.712;2023-07-16T09:59:02;20.60;99.90
41678;DHT22;27364;49.026;8.712;2023-07-16T10:01:31;20.60;99.90
41678;DHT22;27364;49.026;8.712;2023-07-16T10:03:57;20.60;99.90
41678;DHT22;27364;49.026;8.712;2023-07-16T10:06:22;20.60;99.90
41678;DHT22;27364;49.026;8.712;2023-07-16T10:08:50;20.70;99.90
41678;DHT22;27364;49.026;8.712;2023-07-16T10:11:18;20.60;99.90
41678;DHT22;27364;49.026;8.712;2023-07-16T10:13:54;20.60;99.90
41678;DHT22;27364;49.026;8.712;2023-07-16T10:16:20;20.50;99.90
41678;DHT22;27364;49.026;8.712;2023-07-16T10:18:51;20.50;99.90
41678;DHT22;27364;49.026;8.712;2023-07-16T10:21:23;20.50;99.90
41678;DHT22;27364;49.026;8.712;2023-07-16T10:23:57;20.50;99.90
41678;DHT22;27364;49.026;8.712;2023-07-16T10:26:28;20.60;99.90
41678;DHT22;27364;49.026;8.712;2023-07-16T10:28:54;20.60;99.90
41678;DHT22;27364;49.026;8.712;2023-07-16T10:31:24;20.70;99.90
41678;DHT22;27364;49.026;8.712;2023-07-16T10:36:23;20.70;99.90
41678;DHT22;27364;49.026;8.712;2023-07-16T10:38:49;20.70;99.90
41678;DHT22;27364;49.026;8.712;2023-07-16T10:41:15;20.90;99.90
41678;DHT22;27364;49.026;8.712;2023-07-16T10:43:42;20.90;99.90
41678;DHT22;27364;49.026;8.712;2023-07-16T10:46:09;20.90;99.90
41678;DHT22;27364;49.026;8.712;2023-07-16T10:48:35;21.00;99.90
41678;DHT22;27364;49.026;8.712;2023-07-16T10:54:06;21.30;99.90
41678;DHT22;27364;49.026;8.712;2023-07-16T10:56:36;21.60;99.90
41678;DHT22;27364;49.026;8.712;2023-07-16T10:59:02;21.70;99.90
41678;DHT22;27364;49.026;8.712;2023-07-16T11:01:33;21.80;99.90
41678;DHT22;27364;49.026;8.712;2023-07-16T11:04:07;21.80;99.90
41678;DHT22;27364;49.026;8.712;2023-07-16T11:06:34;21.80;99.90
41678;DHT22;27364;49.026;8.712;2023-07-16T11:09:11;21.80;99.90
41678;DHT22;27364;49.026;8.712;2023-07-16T11:11:38;22.20;99.90
41678;DHT22;27364;49.026;8.712;2023-07-16T11:14:09;22.30;99.90
41678;DHT22;27364;49.026;8.712;2023-07-16T11:16:35;22.60;99.90
41678;DHT22;27364;49.026;8.712;2023-07-16T11:19:04;22.60;99.90
41678;DHT22;27364;49.026;8.712;2023-07-16T11:21:30;22.90;99.90
41678;DHT22;27364;49.026;8.712;2023-07-16T11:24:07;22.90;99.90
41678;DHT22;27364;49.026;8.712;2023-07-16T11:26:33;23.00;99.90
41678;DHT22;27364;49.026;8.712;2023-07-16T11:28:58;22.90;99.90
41678;DHT22;27364;49.026;8.712;2023-07-16T11:31:24;23.00;99.90
41678;DHT22;27364;49.026;8.712;2023-07-16T11:33:49;23.20;99.90
41678;DHT22;27364;49.026;8.712;2023-07-16T11:36:16;23.10;99.90
41678;DHT22;27364;49.026;8.712;2023-07-16T11:38:42;23.00;99.90
41678;DHT22;27364;49.026;8.712;2023-07-16T11:41:08;23.20;99.40
41678;DHT22;27364;49.026;8.712;2023-07-16T11:43:34;23.40;99.70
41678;DHT22;27364;49.026;8.712;2023-07-16T11:46:01;23.50;99.90
41678;DHT22;27364;49.026;8.712;2023-07-16T11:48:27;23.80;96.40
41678;DHT22;27364;49.026;8.712;2023-07-16T11:50:52;23.90;99.80
41678;DHT22;27364;49.026;8.712;2023-07-16T11:53:18;24.10;99.90
41678;DHT22;27364;49.026;8.712;2023-07-16T11:55:43;24.20;98.90
41678;DHT22;27364;49.026;8.712;2023-07-16T11:58:09;24.10;98.80
41678;DHT22;27364;49.026;8.712;2023-07-16T12:00:34;23.90;97.50
41678;DHT22;27364;49.026;8.712;2023-07-16T12:03:00;24.10;98.30
41678;DHT22;27364;49.026;8.712;2023-07-16T12:05:25;24.10;98.20
41678;DHT22;27364;49.026;8.712;2023-07-16T12:07:53;24.20;98.50
41678;DHT22;27364;49.026;8.712;2023-07-16T12:10:18;24.20;94.70
41678;DHT22;27364;49.026;8.712;2023-07-16T12:12:44;24.20;97.50
41678;DHT22;27364;49.026;8.712;2023-07-16T12:15:10;24.30;96.40
41678;DHT22;27364;49.026;8.712;2023-07-16T12:17:35;24.40;97.90
41678;DHT22;27364;49.026;8.712;2023-07-16T12:20:02;24.60;98.30
41678;DHT22;27364;49.026;8.712;2023-07-16T12:22:29;24.60;96.20
41678;DHT22;27364;49.026;8.712;2023-07-16T12:24:54;24.70;95.40
41678;DHT22;27364;49.026;8.712;2023-07-16T12:27:20;24.70;94.00
41678;DHT22;27364;49.026;8.712;2023-07-16T12:29:46;24.90;94.60
41678;DHT22;27364;49.026;8.712;2023-07-16T12:32:14;24.90;93.90
41678;DHT22;27364;49.026;8.712;2023-07-16T12:34:39;24.90;91.50
41678;DHT22;27364;49.026;8.712;2023-07-16T12:37:05;25.00;90.70
41678;DHT22;27364;49.026;8.712;2023-07-16T12:39:32;24.90;91.30
41678;DHT22;27364;49.026;8.712;2023-07-16T12:41:58;24.90;90.00
41678;DHT22;27364;49.026;8.712;2023-07-16T12:44:23;25.00;85.60
41678;DHT22;27364;49.026;8.712;2023-07-16T12:46:49;25.00;90.30
41678;DHT22;27364;49.026;8.712;2023-07-16T12:49:15;25.00;88.90
41678;DHT22;27364;49.026;8.712;2023-07-16T12:51:40;25.20;87.20
41678;DHT22;27364;49.026;8.712;2023-07-16T12:54:07;25.20;86.10
41678;DHT22;27364;49.026;8.712;2023-07-16T12:56:32;24.90;83.90
41678;DHT22;27364;49.026;8.712;2023-07-16T12:58:58;24.70;83.70
41678;DHT22;27364;49.026;8.712;2023-07-16T13:01:24;24.70;83.30
41678;DHT22;27364;49.026;8.712;2023-07-16T13:03:49;24.70;82.80
41678;DHT22;27364;49.026;8.712;2023-07-16T13:06:15;24.40;83.80
41678;DHT22;27364;49.026;8.712;2023-07-16T13:08:40;24.20;86.10
41678;DHT22;27364;49.026;8.712;2023-07-16T13:11:06;24.10;87.20
41678;DHT22;27364;49.026;8.712;2023-07-16T13:13:31;24.30;82.50
41678;DHT22;27364;49.026;8.712;2023-07-16T13:15:57;24.50;84.10
41678;DHT22;27364;49.026;8.712;2023-07-16T13:18:22;24.70;83.30
41678;DHT22;27364;49.026;8.712;2023-07-16T13:20:48;24.70;82.20
41678;DHT22;27364;49.026;8.712;2023-07-16T13:23:13;24.70;79.00
41678;DHT22;27364;49.026;8.712;2023-07-16T13:25:39;24.70;81.70
41678;DHT22;27364;49.026;8.712;2023-07-16T13:28:06;24.70;79.10
41678;DHT22;27364;49.026;8.712;2023-07-16T13:30:32;24.80;80.00
41678;DHT22;27364;49.026;8.712;2023-07-16T13:32:59;24.90;78.80
41678;DHT22;27364;49.026;8.712;2023-07-16T13:35:26;25.00;78.50
41678;DHT22;27364;49.026;8.712;2023-07-16T13:37:52;24.90;74.70
41678;DHT22;27364;49.026;8.712;2023-07-16T13:40:18;24.90;76.90
41678;DHT22;27364;49.026;8.712;2023-07-16T13:42:46;25.10;75.50
41678;DHT22;27364;49.026;8.712;2023-07-16T13:45:12;25.40;77.00
41678;DHT22;27364;49.026;8.712;2023-07-16T13:47:38;25.30;75.30
41678;DHT22;27364;49.026;8.712;2023-07-16T13:50:04;25.40;76.50
41678;DHT22;27364;49.026;8.712;2023-07-16T13:52:29;25.50;76.50
41678;DHT22;27364;49.026;8.712;2023-07-16T13:54:55;25.60;74.20
41678;DHT22;27364;49.026;8.712;2023-07-16T13:57:21;25.70;71.60
41678;DHT22;27364;49.026;8.712;2023-07-16T13:59:46;25.80;75.30
41678;DHT22;27364;49.026;8.712;2023-07-16T14:02:12;25.60;72.80
41678;DHT22;27364;49.026;8.712;2023-07-16T14:04:37;25.20;72.20
41678;DHT22;27364;49.026;8.712;2023-07-16T14:07:06;25.10;74.50
41678;DHT22;27364;49.026;8.712;2023-07-16T14:09:49;25.20;75.40
41678;DHT22;27364;49.026;8.712;2023-07-16T14:12:14;25.50;74.70
41678;DHT22;27364;49.026;8.712;2023-07-16T14:14:40;25.70;74.70
41678;DHT22;27364;49.026;8.712;2023-07-16T14:17:05;25.80;72.80
41678;DHT22;27364;49.026;8.712;2023-07-16T14:19:32;25.90;70.20
41678;DHT22;27364;49.026;8.712;2023-07-16T14:21:57;26.20;68.00
41678;DHT22;27364;49.026;8.712;2023-07-16T14:24:23;26.20;71.90
41678;DHT22;27364;49.026;8.712;2023-07-16T14:26:48;26.40;67.60
41678;DHT22;27364;49.026;8.712;2023-07-16T14:29:14;26.40;66.20
41678;DHT22;27364;49.026;8.712;2023-07-16T14:31:40;26.60;65.20
41678;DHT22;27364;49.026;8.712;2023-07-16T14:34:06;26.60;63.60
41678;DHT22;27364;49.026;8.712;2023-07-16T14:36:32;26.60;65.40
41678;DHT22;27364;49.026;8.712;2023-07-16T14:38:57;26.70;65.70
41678;DHT22;27364;49.026;8.712;2023-07-16T14:41:23;26.60;65.50
41678;DHT22;27364;49.026;8.712;2023-07-16T14:43:48;26.60;66.00
41678;DHT22;27364;49.026;8.712;2023-07-16T14:46:15;26.60;68.80
41678;DHT22;27364;49.026;8.712;2023-07-16T14:48:45;26.80;65.50
41678;DHT22;27364;49.026;8.712;2023-07-16T14:51:11;26.90;64.80
41678;DHT22;27364;49.026;8.712;2023-07-16T14:53:37;26.70;65.70
41678;DHT22;27364;49.026;8.712;2023-07-16T14:56:03;26.50;66.00
41678;DHT22;27364;49.026;8.712;2023-07-16T14:58:32;26.40;68.00
41678;DHT22;27364;49.026;8.712;2023-07-16T15:01:07;26.10;64.80
41678;DHT22;27364;49.026;8.712;2023-07-16T15:03:34;25.90;62.20
41678;DHT22;27364;49.026;8.712;2023-07-16T15:06:00;25.70;63.00
41678;DHT22;27364;49.026;8.712;2023-07-16T15:08:26;25.50;65.40
41678;DHT22;27364;49.026;8.712;2023-07-16T15:10:52;25.40;64.10
41678;DHT22;27364;49.026;8.712;2023-07-16T15:13:18;25.40;68.20
41678;DHT22;27364;49.026;8.712;2023-07-16T15:15:49;25.50;65.20
41678;DHT22;27364;49.026;8.712;2023-07-16T15:18:15;25.60;67.60
41678;DHT22;27364;49.026;8.712;2023-07-16T15:20:41;25.60;64.60
41678;DHT22;27364;49.026;8.712;2023-07-16T15:23:07;25.60;65.20
41678;DHT22;27364;49.026;8.712;2023-07-16T15:25:32;25.60;65.80
41678;DHT22;27364;49.026;8.712;2023-07-16T15:27:58;25.70;69.50
41678;DHT22;27364;49.026;8.712;2023-07-16T15:30:25;25.60;66.20
41678;DHT22;27364;49.026;8.712;2023-07-16T15:32:51;25.80;70.50
41678;DHT22;27364;49.026;8.712;2023-07-16T15:35:17;25.80;67.00
41678;DHT22;27364;49.026;8.712;2023-07-16T15:37:42;25.80;67.00
41678;DHT22;27364;49.026;8.712;2023-07-16T15:40:15;25.70;73.30
41678;DHT22;27364;49.026;8.712;2023-07-16T15:42:41;25.70;69.30